Skip Navigation Links Skip Navigation Links

Current Weather

Tanagra Airport, Greece

For information only: do not use for flight planning or navigation.
Latest weather
Observation time Friday, January 28, 2022 6:50 AM EET
Local time Friday, January 28, 2022 7:09 AM EET
Flight conditions Visual Meteorological Conditions
Winds
Wind direction West-Northwest (300°)
Wind speed 6 mph
Visibility 6.2 mi.
Sky condition
Ceiling unlimited
Cloud layer few clouds 3,000 ft.
Temperature 25°F
Dewpoint 19°F
Altimeter 30.24 in.Hg
Derived measurements
Relative humidity 80%
Wind chill 18°F
Density altitude -2504 ft.
METAR LGTG 280450Z 30005KT 9999 FEW030 M04/M07 Q1024 BLU

Settings

Location code

InnerDrive.Weather 4.0.6770.0 Release CLR 4.0.30319.42000
Copyright ©2018 Inner Drive Technology. All rights reserved. Portions Copyright ©1986-2018 David Braverman.

Find weather

Site navigation


Skip Navigation Links

Place info

Page info

PayPal - The safer, easier way to pay online!

Return home.

Copyright ©2022 Inner Drive Technology. Purveyors of fine, hand-crafted computer software. Page printed 2022-01-28T05:09:59 UTC.